sensor_id;sensor_type;location;lat;lon;timestamp;P1;durP1;ratioP1;P2;durP2;ratioP2
58460;SDS011;45558;37.752;-97.822;2023-07-31T00:01:21;10.23;;;3.00;;
58460;SDS011;45558;37.752;-97.822;2023-07-31T00:03:47;9.20;;;3.40;;
58460;SDS011;45558;37.752;-97.822;2023-07-31T00:06:13;13.43;;;3.50;;
58460;SDS011;45558;37.752;-97.822;2023-07-31T00:08:38;13.55;;;3.72;;
58460;SDS011;45558;37.752;-97.822;2023-07-31T00:11:04;10.30;;;3.72;;
58460;SDS011;45558;37.752;-97.822;2023-07-31T00:13:30;7.85;;;3.45;;
58460;SDS011;45558;37.752;-97.822;2023-07-31T00:15:56;12.80;;;3.72;;
58460;SDS011;45558;37.752;-97.822;2023-07-31T00:18:21;10.40;;;3.95;;
58460;SDS011;45558;37.752;-97.822;2023-07-31T00:20:47;13.88;;;4.13;;
58460;SDS011;45558;37.752;-97.822;2023-07-31T00:23:13;18.38;;;4.18;;
58460;SDS011;45558;37.752;-97.822;2023-07-31T00:25:39;15.18;;;4.13;;
58460;SDS011;45558;37.752;-97.822;2023-07-31T00:28:05;17.92;;;3.72;;
58460;SDS011;45558;37.752;-97.822;2023-07-31T00:30:30;12.32;;;4.03;;
58460;SDS011;45558;37.752;-97.822;2023-07-31T00:32:56;9.90;;;3.75;;
58460;SDS011;45558;37.752;-97.822;2023-07-31T00:35:22;9.95;;;3.53;;
58460;SDS011;45558;37.752;-97.822;2023-07-31T00:37:47;15.40;;;4.68;;
58460;SDS011;45558;37.752;-97.822;2023-07-31T00:40:13;9.80;;;3.80;;
58460;SDS011;45558;37.752;-97.822;2023-07-31T00:42:39;12.00;;;4.18;;
58460;SDS011;45558;37.752;-97.822;2023-07-31T00:45:05;10.73;;;3.70;;
58460;SDS011;45558;37.752;-97.822;2023-07-31T00:47:31;13.18;;;3.67;;
58460;SDS011;45558;37.752;-97.822;2023-07-31T00:49:57;18.50;;;3.75;;
58460;SDS011;45558;37.752;-97.822;2023-07-31T00:52:22;9.82;;;3.22;;
58460;SDS011;45558;37.752;-97.822;2023-07-31T00:54:48;9.52;;;3.30;;
58460;SDS011;45558;37.752;-97.822;2023-07-31T00:57:14;9.32;;;3.20;;
58460;SDS011;45558;37.752;-97.822;2023-07-31T00:59:40;10.80;;;3.13;;
58460;SDS011;45558;37.752;-97.822;2023-07-31T01:02:06;10.73;;;2.75;;
58460;SDS011;45558;37.752;-97.822;2023-07-31T01:04:32;10.45;;;2.88;;
58460;SDS011;45558;37.752;-97.822;2023-07-31T01:09:47;8.32;;;3.33;;
58460;SDS011;45558;37.752;-97.822;2023-07-31T01:12:20;8.55;;;2.75;;
58460;SDS011;45558;37.752;-97.822;2023-07-31T01:15:30;5.43;;;3.20;;
58460;SDS011;45558;37.752;-97.822;2023-07-31T01:17:37;9.65;;;3.15;;
58460;SDS011;45558;37.752;-97.822;2023-07-31T01:20:04;5.00;;;2.20;;
58460;SDS011;45558;37.752;-97.822;2023-07-31T01:28:19;8.52;;;2.30;;
58460;SDS011;45558;37.752;-97.822;2023-07-31T01:30:48;9.02;;;2.97;;
58460;SDS011;45558;37.752;-97.822;2023-07-31T01:33:15;7.93;;;2.10;;
58460;SDS011;45558;37.752;-97.822;2023-07-31T01:35:42;9.65;;;2.40;;
58460;SDS011;45558;37.752;-97.822;2023-07-31T01:38:10;7.68;;;2.58;;
58460;SDS011;45558;37.752;-97.822;2023-07-31T01:40:36;7.65;;;2.28;;
58460;SDS011;45558;37.752;-97.822;2023-07-31T01:43:07;7.45;;;2.42;;
58460;SDS011;45558;37.752;-97.822;2023-07-31T01:45:33;7.80;;;1.98;;
58460;SDS011;45558;37.752;-97.822;2023-07-31T01:47:59;8.57;;;2.08;;
58460;SDS011;45558;37.752;-97.822;2023-07-31T01:50:25;8.57;;;1.92;;
58460;SDS011;45558;37.752;-97.822;2023-07-31T01:52:50;5.32;;;1.48;;
58460;SDS011;45558;37.752;-97.822;2023-07-31T01:55:16;4.95;;;1.77;;
58460;SDS011;45558;37.752;-97.822;2023-07-31T01:57:42;5.40;;;1.73;;
58460;SDS011;45558;37.752;-97.822;2023-07-31T02:00:08;3.20;;;1.50;;
58460;SDS011;45558;37.752;-97.822;2023-07-31T02:02:33;6.72;;;2.20;;
58460;SDS011;45558;37.752;-97.822;2023-07-31T02:04:59;5.85;;;1.40;;
58460;SDS011;45558;37.752;-97.822;2023-07-31T02:07:25;6.88;;;1.40;;
58460;SDS011;45558;37.752;-97.822;2023-07-31T02:09:50;7.50;;;1.70;;
58460;SDS011;45558;37.752;-97.822;2023-07-31T02:12:16;5.40;;;1.42;;
58460;SDS011;45558;37.752;-97.822;2023-07-31T02:14:42;4.90;;;1.40;;
58460;SDS011;45558;37.752;-97.822;2023-07-31T02:17:08;3.35;;;0.98;;
58460;SDS011;45558;37.752;-97.822;2023-07-31T02:19:33;5.05;;;1.00;;
58460;SDS011;45558;37.752;-97.822;2023-07-31T02:21:59;5.47;;;1.35;;
58460;SDS011;45558;37.752;-97.822;2023-07-31T02:24:25;4.97;;;1.15;;
58460;SDS011;45558;37.752;-97.822;2023-07-31T02:26:51;6.60;;;1.30;;
58460;SDS011;45558;37.752;-97.822;2023-07-31T02:29:16;5.38;;;1.35;;
58460;SDS011;45558;37.752;-97.822;2023-07-31T02:31:42;3.10;;;0.85;;
58460;SDS011;45558;37.752;-97.822;2023-07-31T02:34:08;2.97;;;1.00;;
58460;SDS011;45558;37.752;-97.822;2023-07-31T02:36:34;2.88;;;1.33;;
58460;SDS011;45558;37.752;-97.822;2023-07-31T02:38:59;4.30;;;1.20;;
58460;SDS011;45558;37.752;-97.822;2023-07-31T02:41:25;4.40;;;0.95;;
58460;SDS011;45558;37.752;-97.822;2023-07-31T02:43:51;5.28;;;1.27;;
58460;SDS011;45558;37.752;-97.822;2023-07-31T02:46:17;4.35;;;1.20;;
58460;SDS011;45558;37.752;-97.822;2023-07-31T02:48:42;8.10;;;1.33;;
58460;SDS011;45558;37.752;-97.822;2023-07-31T02:51:08;6.32;;;1.38;;
58460;SDS011;45558;37.752;-97.822;2023-07-31T02:53:34;5.20;;;1.42;;
58460;SDS011;45558;37.752;-97.822;2023-07-31T02:59:21;5.68;;;1.67;;
58460;SDS011;45558;37.752;-97.822;2023-07-31T03:01:47;4.18;;;1.55;;
58460;SDS011;45558;37.752;-97.822;2023-07-31T03:04:12;7.88;;;1.70;;
58460;SDS011;45558;37.752;-97.822;2023-07-31T03:06:38;7.72;;;2.00;;
58460;SDS011;45558;37.752;-97.822;2023-07-31T03:09:04;4.22;;;1.50;;
58460;SDS011;45558;37.752;-97.822;2023-07-31T03:11:30;6.03;;;1.60;;
58460;SDS011;45558;37.752;-97.822;2023-07-31T03:13:55;5.90;;;2.13;;
58460;SDS011;45558;37.752;-97.822;2023-07-31T03:16:21;7.45;;;2.70;;
58460;SDS011;45558;37.752;-97.822;2023-07-31T03:18:47;10.73;;;1.98;;
58460;SDS011;45558;37.752;-97.822;2023-07-31T03:21:13;10.10;;;2.80;;
58460;SDS011;45558;37.752;-97.822;2023-07-31T03:23:39;6.80;;;2.50;;
58460;SDS011;45558;37.752;-97.822;2023-07-31T03:26:06;8.75;;;2.38;;
58460;SDS011;45558;37.752;-97.822;2023-07-31T03:28:32;9.80;;;2.22;;
58460;SDS011;45558;37.752;-97.822;2023-07-31T03:30:58;9.10;;;2.92;;
58460;SDS011;45558;37.752;-97.822;2023-07-31T03:33:24;6.95;;;2.03;;
58460;SDS011;45558;37.752;-97.822;2023-07-31T03:35:50;8.40;;;1.98;;
58460;SDS011;45558;37.752;-97.822;2023-07-31T03:38:16;10.35;;;2.65;;
58460;SDS011;45558;37.752;-97.822;2023-07-31T03:40:42;8.70;;;2.35;;
58460;SDS011;45558;37.752;-97.822;2023-07-31T03:43:08;7.68;;;2.22;;
58460;SDS011;45558;37.752;-97.822;2023-07-31T03:45:34;11.38;;;3.15;;
58460;SDS011;45558;37.752;-97.822;2023-07-31T03:48:00;6.78;;;2.13;;
58460;SDS011;45558;37.752;-97.822;2023-07-31T03:50:25;10.48;;;2.28;;
58460;SDS011;45558;37.752;-97.822;2023-07-31T03:52:51;10.27;;;2.63;;
58460;SDS011;45558;37.752;-97.822;2023-07-31T03:55:17;11.73;;;2.42;;
58460;SDS011;45558;37.752;-97.822;2023-07-31T03:57:43;15.63;;;3.00;;
58460;SDS011;45558;37.752;-97.822;2023-07-31T04:00:09;7.70;;;2.83;;
58460;SDS011;45558;37.752;-97.822;2023-07-31T04:02:35;10.02;;;2.72;;
58460;SDS011;45558;37.752;-97.822;2023-07-31T04:05:01;9.30;;;2.65;;
58460;SDS011;45558;37.752;-97.822;2023-07-31T04:07:27;11.25;;;2.53;;
58460;SDS011;45558;37.752;-97.822;2023-07-31T04:09:53;8.02;;;2.70;;
58460;SDS011;45558;37.752;-97.822;2023-07-31T04:12:18;7.57;;;2.13;;
58460;SDS011;45558;37.752;-97.822;2023-07-31T04:14:44;8.55;;;2.40;;
58460;SDS011;45558;37.752;-97.822;2023-07-31T04:17:10;11.15;;;3.25;;
58460;SDS011;45558;37.752;-97.822;2023-07-31T04:19:36;10.38;;;2.53;;
58460;SDS011;45558;37.752;-97.822;2023-07-31T04:22:01;11.60;;;2.47;;
58460;SDS011;45558;37.752;-97.822;2023-07-31T04:24:27;12.48;;;2.83;;
58460;SDS011;45558;37.752;-97.822;2023-07-31T04:26:53;9.35;;;2.45;;
58460;SDS011;45558;37.752;-97.822;2023-07-31T04:29:19;9.48;;;3.15;;
58460;SDS011;45558;37.752;-97.822;2023-07-31T04:31:45;11.98;;;2.50;;
58460;SDS011;45558;37.752;-97.822;2023-07-31T04:34:11;13.02;;;2.70;;
58460;SDS011;45558;37.752;-97.822;2023-07-31T04:36:37;10.77;;;3.03;;
58460;SDS011;45558;37.752;-97.822;2023-07-31T04:39:03;9.15;;;2.80;;
58460;SDS011;45558;37.752;-97.822;2023-07-31T04:41:29;12.48;;;3.90;;
58460;SDS011;45558;37.752;-97.822;2023-07-31T04:43:54;18.20;;;2.75;;
58460;SDS011;45558;37.752;-97.822;2023-07-31T04:46:20;13.75;;;2.72;;
58460;SDS011;45558;37.752;-97.822;2023-07-31T04:48:46;12.80;;;3.10;;
58460;SDS011;45558;37.752;-97.822;2023-07-31T04:51:12;16.73;;;3.15;;
58460;SDS011;45558;37.752;-97.822;2023-07-31T04:53:37;10.90;;;2.17;;
58460;SDS011;45558;37.752;-97.822;2023-07-31T04:56:03;14.07;;;3.28;;
58460;SDS011;45558;37.752;-97.822;2023-07-31T04:58:29;14.30;;;3.28;;
58460;SDS011;45558;37.752;-97.822;2023-07-31T05:00:55;14.95;;;3.83;;
58460;SDS011;45558;37.752;-97.822;2023-07-31T05:03:20;23.60;;;3.78;;
58460;SDS011;45558;37.752;-97.822;2023-07-31T05:05:46;13.60;;;2.33;;
58460;SDS011;45558;37.752;-97.822;2023-07-31T05:08:12;12.10;;;2.72;;
58460;SDS011;45558;37.752;-97.822;2023-07-31T05:10:38;11.20;;;2.30;;
58460;SDS011;45558;37.752;-97.822;2023-07-31T05:13:04;16.75;;;3.33;;
58460;SDS011;45558;37.752;-97.822;2023-07-31T05:15:30;11.82;;;3.10;;
58460;SDS011;45558;37.752;-97.822;2023-07-31T05:17:56;12.68;;;3.42;;
58460;SDS011;45558;37.752;-97.822;2023-07-31T05:20:22;9.73;;;2.75;;
58460;SDS011;45558;37.752;-97.822;2023-07-31T05:22:48;11.98;;;2.75;;
58460;SDS011;45558;37.752;-97.822;2023-07-31T05:25:13;9.23;;;2.60;;
58460;SDS011;45558;37.752;-97.822;2023-07-31T05:27:39;12.52;;;3.63;;
58460;SDS011;45558;37.752;-97.822;2023-07-31T05:30:05;5.18;;;2.38;;
58460;SDS011;45558;37.752;-97.822;2023-07-31T05:32:32;10.05;;;2.83;;
58460;SDS011;45558;37.752;-97.822;2023-07-31T05:34:58;9.23;;;2.58;;
58460;SDS011;45558;37.752;-97.822;2023-07-31T05:37:25;9.30;;;2.92;;
58460;SDS011;45558;37.752;-97.822;2023-07-31T05:39:51;16.30;;;2.60;;
58460;SDS011;45558;37.752;-97.822;2023-07-31T05:42:17;7.25;;;2.67;;
58460;SDS011;45558;37.752;-97.822;2023-07-31T05:44:43;12.52;;;2.70;;
58460;SDS011;45558;37.752;-97.822;2023-07-31T05:47:10;7.10;;;2.08;;
58460;SDS011;45558;37.752;-97.822;2023-07-31T05:49:36;6.15;;;2.35;;
58460;SDS011;45558;37.752;-97.822;2023-07-31T05:52:02;10.05;;;2.72;;
58460;SDS011;45558;37.752;-97.822;2023-07-31T05:54:29;5.28;;;1.85;;
58460;SDS011;45558;37.752;-97.822;2023-07-31T05:56:58;5.65;;;1.80;;
58460;SDS011;45558;37.752;-97.822;2023-07-31T05:59:24;6.22;;;2.05;;
58460;SDS011;45558;37.752;-97.822;2023-07-31T06:01:53;5.20;;;2.10;;
58460;SDS011;45558;37.752;-97.822;2023-07-31T06:04:21;9.80;;;2.30;;
58460;SDS011;45558;37.752;-97.822;2023-07-31T06:06:50;11.60;;;2.45;;
58460;SDS011;45558;37.752;-97.822;2023-07-31T06:09:18;6.82;;;1.77;;
58460;SDS011;45558;37.752;-97.822;2023-07-31T06:11:48;6.32;;;1.83;;
58460;SDS011;45558;37.752;-97.822;2023-07-31T06:14:15;8.73;;;2.13;;
58460;SDS011;45558;37.752;-97.822;2023-07-31T06:16:41;4.70;;;1.33;;
58460;SDS011;45558;37.752;-97.822;2023-07-31T06:19:09;3.83;;;1.10;;
58460;SDS011;45558;37.752;-97.822;2023-07-31T06:21:35;6.95;;;1.30;;
58460;SDS011;45558;37.752;-97.822;2023-07-31T06:24:07;4.18;;;1.08;;
58460;SDS011;45558;37.752;-97.822;2023-07-31T06:26:33;3.70;;;1.10;;
58460;SDS011;45558;37.752;-97.822;2023-07-31T06:28:59;3.45;;;0.65;;
58460;SDS011;45558;37.752;-97.822;2023-07-31T06:31:26;2.83;;;0.80;;
58460;SDS011;45558;37.752;-97.822;2023-07-31T06:33:52;2.05;;;0.75;;
58460;SDS011;45558;37.752;-97.822;2023-07-31T06:36:18;2.53;;;1.00;;
58460;SDS011;45558;37.752;-97.822;2023-07-31T06:38:44;2.00;;;0.75;;
58460;SDS011;45558;37.752;-97.822;2023-07-31T06:41:10;4.40;;;0.80;;
58460;SDS011;45558;37.752;-97.822;2023-07-31T06:43:36;4.70;;;1.10;;
58460;SDS011;45558;37.752;-97.822;2023-07-31T06:46:05;9.93;;;1.60;;
58460;SDS011;45558;37.752;-97.822;2023-07-31T06:48:35;6.72;;;1.63;;
58460;SDS011;45558;37.752;-97.822;2023-07-31T06:51:02;8.68;;;1.30;;
58460;SDS011;45558;37.752;-97.822;2023-07-31T06:53:28;7.07;;;1.25;;
58460;SDS011;45558;37.752;-97.822;2023-07-31T06:55:54;7.50;;;1.42;;
58460;SDS011;45558;37.752;-97.822;2023-07-31T06:58:20;11.80;;;2.33;;
58460;SDS011;45558;37.752;-97.822;2023-07-31T07:00:46;5.60;;;1.48;;
58460;SDS011;45558;37.752;-97.822;2023-07-31T07:03:14;11.50;;;1.83;;
58460;SDS011;45558;37.752;-97.822;2023-07-31T07:05:40;27.13;;;5.63;;
58460;SDS011;45558;37.752;-97.822;2023-07-31T07:08:06;12.82;;;2.00;;
58460;SDS011;45558;37.752;-97.822;2023-07-31T07:10:32;10.25;;;1.98;;
58460;SDS011;45558;37.752;-97.822;2023-07-31T07:12:57;15.95;;;2.55;;
58460;SDS011;45558;37.752;-97.822;2023-07-31T07:15:23;12.70;;;2.35;;
58460;SDS011;45558;37.752;-97.822;2023-07-31T07:17:49;12.43;;;2.75;;
58460;SDS011;45558;37.752;-97.822;2023-07-31T07:20:14;8.55;;;1.90;;
58460;SDS011;45558;37.752;-97.822;2023-07-31T07:22:40;16.08;;;2.80;;
58460;SDS011;45558;37.752;-97.822;2023-07-31T07:25:08;11.60;;;2.50;;
58460;SDS011;45558;37.752;-97.822;2023-07-31T07:27:34;11.45;;;3.13;;
58460;SDS011;45558;37.752;-97.822;2023-07-31T07:30:00;17.67;;;2.33;;
58460;SDS011;45558;37.752;-97.822;2023-07-31T07:32:26;13.82;;;3.80;;
58460;SDS011;45558;37.752;-97.822;2023-07-31T07:34:53;12.15;;;2.33;;
58460;SDS011;45558;37.752;-97.822;2023-07-31T07:37:21;14.25;;;1.95;;
58460;SDS011;45558;37.752;-97.822;2023-07-31T07:39:46;9.73;;;2.00;;
58460;SDS011;45558;37.752;-97.822;2023-07-31T07:42:12;16.40;;;2.60;;
58460;SDS011;45558;37.752;-97.822;2023-07-31T07:44:38;11.15;;;2.58;;
58460;SDS011;45558;37.752;-97.822;2023-07-31T07:47:03;17.13;;;2.65;;
58460;SDS011;45558;37.752;-97.822;2023-07-31T07:49:31;15.82;;;2.92;;
58460;SDS011;45558;37.752;-97.822;2023-07-31T07:51:56;14.18;;;2.38;;
58460;SDS011;45558;37.752;-97.822;2023-07-31T07:54:22;20.63;;;4.03;;
58460;SDS011;45558;37.752;-97.822;2023-07-31T07:56:48;20.00;;;3.25;;
58460;SDS011;45558;37.752;-97.822;2023-07-31T07:59:14;16.85;;;4.00;;
58460;SDS011;45558;37.752;-97.822;2023-07-31T08:01:40;18.33;;;3.85;;
58460;SDS011;45558;37.752;-97.822;2023-07-31T08:04:06;12.10;;;2.88;;
58460;SDS011;45558;37.752;-97.822;2023-07-31T08:06:31;15.85;;;3.45;;
58460;SDS011;45558;37.752;-97.822;2023-07-31T08:08:57;19.77;;;2.97;;
58460;SDS011;45558;37.752;-97.822;2023-07-31T08:11:30;15.38;;;3.28;;
58460;SDS011;45558;37.752;-97.822;2023-07-31T08:13:56;16.98;;;2.65;;
58460;SDS011;45558;37.752;-97.822;2023-07-31T08:16:21;22.05;;;2.58;;
58460;SDS011;45558;37.752;-97.822;2023-07-31T08:18:47;15.68;;;2.97;;
58460;SDS011;45558;37.752;-97.822;2023-07-31T08:21:14;11.18;;;2.70;;
58460;SDS011;45558;37.752;-97.822;2023-07-31T08:23:40;16.98;;;3.10;;
58460;SDS011;45558;37.752;-97.822;2023-07-31T08:26:06;15.10;;;2.92;;
58460;SDS011;45558;37.752;-97.822;2023-07-31T08:28:32;12.57;;;2.95;;
58460;SDS011;45558;37.752;-97.822;2023-07-31T08:30:58;17.30;;;2.60;;
58460;SDS011;45558;37.752;-97.822;2023-07-31T08:33:23;17.75;;;3.22;;
58460;SDS011;45558;37.752;-97.822;2023-07-31T08:35:49;18.25;;;3.15;;
58460;SDS011;45558;37.752;-97.822;2023-07-31T08:38:15;15.05;;;3.03;;
58460;SDS011;45558;37.752;-97.822;2023-07-31T08:40:42;11.77;;;2.10;;
58460;SDS011;45558;37.752;-97.822;2023-07-31T08:43:08;16.58;;;3.58;;
58460;SDS011;45558;37.752;-97.822;2023-07-31T08:45:34;11.90;;;3.03;;
58460;SDS011;45558;37.752;-97.822;2023-07-31T08:48:01;20.27;;;4.47;;
58460;SDS011;45558;37.752;-97.822;2023-07-31T08:50:27;23.33;;;2.90;;
58460;SDS011;45558;37.752;-97.822;2023-07-31T08:52:54;17.83;;;3.53;;
58460;SDS011;45558;37.752;-97.822;2023-07-31T08:55:20;15.05;;;2.67;;
58460;SDS011;45558;37.752;-97.822;2023-07-31T08:57:48;13.77;;;2.53;;
58460;SDS011;45558;37.752;-97.822;2023-07-31T09:00:16;10.52;;;3.08;;
58460;SDS011;45558;37.752;-97.822;2023-07-31T09:05:11;23.55;;;6.15;;
58460;SDS011;45558;37.752;-97.822;2023-07-31T09:07:38;15.13;;;3.13;;
58460;SDS011;45558;37.752;-97.822;2023-07-31T09:10:04;14.57;;;3.42;;
58460;SDS011;45558;37.752;-97.822;2023-07-31T09:12:31;16.08;;;2.78;;
58460;SDS011;45558;37.752;-97.822;2023-07-31T09:15:00;15.73;;;3.70;;
58460;SDS011;45558;37.752;-97.822;2023-07-31T09:17:29;19.25;;;2.97;;
58460;SDS011;45558;37.752;-97.822;2023-07-31T09:20:18;12.30;;;3.20;;
58460;SDS011;45558;37.752;-97.822;2023-07-31T09:22:45;14.48;;;3.25;;
58460;SDS011;45558;37.752;-97.822;2023-07-31T09:25:21;16.05;;;2.58;;
58460;SDS011;45558;37.752;-97.822;2023-07-31T09:27:52;12.45;;;3.13;;
58460;SDS011;45558;37.752;-97.822;2023-07-31T09:30:18;17.65;;;4.10;;
58460;SDS011;45558;37.752;-97.822;2023-07-31T09:32:45;16.80;;;2.90;;
58460;SDS011;45558;37.752;-97.822;2023-07-31T09:37:41;13.43;;;2.65;;
58460;SDS011;45558;37.752;-97.822;2023-07-31T09:40:08;13.93;;;2.35;;
58460;SDS011;45558;37.752;-97.822;2023-07-31T09:42:34;19.25;;;3.65;;
58460;SDS011;45558;37.752;-97.822;2023-07-31T09:45:06;15.35;;;3.55;;
58460;SDS011;45558;37.752;-97.822;2023-07-31T09:47:34;18.10;;;3.42;;
58460;SDS011;45558;37.752;-97.822;2023-07-31T09:49:59;15.15;;;3.42;;
58460;SDS011;45558;37.752;-97.822;2023-07-31T09:52:26;14.40;;;2.90;;
58460;SDS011;45558;37.752;-97.822;2023-07-31T09:54:52;15.95;;;3.60;;
58460;SDS011;45558;37.752;-97.822;2023-07-31T09:57:18;15.73;;;3.63;;
58460;SDS011;45558;37.752;-97.822;2023-07-31T09:59:47;18.92;;;3.50;;
58460;SDS011;45558;37.752;-97.822;2023-07-31T10:02:15;15.38;;;3.65;;
58460;SDS011;45558;37.752;-97.822;2023-07-31T10:04:48;15.35;;;4.00;;
58460;SDS011;45558;37.752;-97.822;2023-07-31T10:07:16;12.20;;;3.00;;
58460;SDS011;45558;37.752;-97.822;2023-07-31T10:09:43;15.23;;;3.63;;
58460;SDS011;45558;37.752;-97.822;2023-07-31T10:12:09;9.35;;;2.60;;
58460;SDS011;45558;37.752;-97.822;2023-07-31T10:14:37;10.02;;;3.65;;
58460;SDS011;45558;37.752;-97.822;2023-07-31T10:17:04;12.75;;;2.72;;
58460;SDS011;45558;37.752;-97.822;2023-07-31T10:19:31;11.85;;;3.00;;
58460;SDS011;45558;37.752;-97.822;2023-07-31T10:21:57;15.65;;;3.78;;
58460;SDS011;45558;37.752;-97.822;2023-07-31T10:24:24;16.08;;;4.10;;
58460;SDS011;45558;37.752;-97.822;2023-07-31T10:26:52;13.00;;;4.65;;
58460;SDS011;45558;37.752;-97.822;2023-07-31T10:29:18;20.70;;;6.30;;
58460;SDS011;45558;37.752;-97.822;2023-07-31T10:31:45;22.92;;;4.18;;
58460;SDS011;45558;37.752;-97.822;2023-07-31T10:34:11;18.92;;;5.28;;
58460;SDS011;45558;37.752;-97.822;2023-07-31T10:36:37;13.90;;;3.70;;
58460;SDS011;45558;37.752;-97.822;2023-07-31T10:39:03;17.50;;;3.35;;
58460;SDS011;45558;37.752;-97.822;2023-07-31T10:41:30;14.70;;;3.55;;
58460;SDS011;45558;37.752;-97.822;2023-07-31T10:44:05;14.88;;;2.92;;
58460;SDS011;45558;37.752;-97.822;2023-07-31T10:46:32;17.17;;;3.95;;
58460;SDS011;45558;37.752;-97.822;2023-07-31T10:48:58;15.60;;;2.97;;
58460;SDS011;45558;37.752;-97.822;2023-07-31T10:51:33;13.63;;;3.53;;
58460;SDS011;45558;37.752;-97.822;2023-07-31T10:54:12;15.15;;;2.95;;
58460;SDS011;45558;37.752;-97.822;2023-07-31T10:56:51;12.07;;;2.58;;
58460;SDS011;45558;37.752;-97.822;2023-07-31T10:59:18;13.35;;;2.72;;
58460;SDS011;45558;37.752;-97.822;2023-07-31T11:04:24;12.32;;;2.97;;
58460;SDS011;45558;37.752;-97.822;2023-07-31T11:06:55;13.27;;;2.53;;
58460;SDS011;45558;37.752;-97.822;2023-07-31T11:09:27;14.00;;;2.55;;
58460;SDS011;45558;37.752;-97.822;2023-07-31T11:11:56;8.18;;;2.50;;
58460;SDS011;45558;37.752;-97.822;2023-07-31T11:14:22;9.43;;;2.45;;
58460;SDS011;45558;37.752;-97.822;2023-07-31T11:16:51;10.73;;;2.55;;
58460;SDS011;45558;37.752;-97.822;2023-07-31T11:19:24;12.55;;;2.60;;
58460;SDS011;45558;37.752;-97.822;2023-07-31T11:21:50;8.15;;;2.33;;
58460;SDS011;45558;37.752;-97.822;2023-07-31T11:24:18;11.23;;;2.35;;
58460;SDS011;45558;37.752;-97.822;2023-07-31T11:26:49;10.20;;;2.30;;
58460;SDS011;45558;37.752;-97.822;2023-07-31T11:29:15;7.50;;;1.63;;
58460;SDS011;45558;37.752;-97.822;2023-07-31T11:31:44;6.75;;;1.48;;
58460;SDS011;45558;37.752;-97.822;2023-07-31T11:34:10;9.18;;;2.22;;
58460;SDS011;45558;37.752;-97.822;2023-07-31T11:36:36;8.25;;;1.63;;
58460;SDS011;45558;37.752;-97.822;2023-07-31T11:39:05;6.75;;;2.38;;
58460;SDS011;45558;37.752;-97.822;2023-07-31T11:41:32;12.48;;;2.25;;
58460;SDS011;45558;37.752;-97.822;2023-07-31T11:44:01;8.00;;;1.60;;
58460;SDS011;45558;37.752;-97.822;2023-07-31T11:46:28;9.93;;;2.03;;
58460;SDS011;45558;37.752;-97.822;2023-07-31T11:48:59;10.98;;;2.53;;
58460;SDS011;45558;37.752;-97.822;2023-07-31T11:51:26;9.32;;;2.25;;
58460;SDS011;45558;37.752;-97.822;2023-07-31T11:53:55;8.13;;;2.10;;
58460;SDS011;45558;37.752;-97.822;2023-07-31T11:56:23;12.77;;;2.35;;
58460;SDS011;45558;37.752;-97.822;2023-07-31T11:58:50;12.13;;;2.25;;
58460;SDS011;45558;37.752;-97.822;2023-07-31T12:01:19;9.18;;;2.47;;
58460;SDS011;45558;37.752;-97.822;2023-07-31T12:03:47;11.13;;;1.38;;
58460;SDS011;45558;37.752;-97.822;2023-07-31T12:06:13;7.97;;;2.00;;
58460;SDS011;45558;37.752;-97.822;2023-07-31T12:08:39;9.75;;;1.52;;
58460;SDS011;45558;37.752;-97.822;2023-07-31T12:11:05;10.13;;;1.58;;
58460;SDS011;45558;37.752;-97.822;2023-07-31T12:13:35;9.05;;;1.60;;
58460;SDS011;45558;37.752;-97.822;2023-07-31T12:16:02;9.57;;;1.55;;
58460;SDS011;45558;37.752;-97.822;2023-07-31T12:18:29;6.45;;;1.92;;
58460;SDS011;45558;37.752;-97.822;2023-07-31T12:21:04;9.55;;;1.27;;
58460;SDS011;45558;37.752;-97.822;2023-07-31T12:23:37;8.15;;;1.73;;
58460;SDS011;45558;37.752;-97.822;2023-07-31T12:28:35;8.95;;;1.70;;
58460;SDS011;45558;37.752;-97.822;2023-07-31T12:31:21;6.97;;;1.40;;
58460;SDS011;45558;37.752;-97.822;2023-07-31T12:33:48;7.75;;;2.00;;
58460;SDS011;45558;37.752;-97.822;2023-07-31T12:36:16;5.82;;;1.92;;
58460;SDS011;45558;37.752;-97.822;2023-07-31T12:38:44;9.95;;;2.22;;
58460;SDS011;45558;37.752;-97.822;2023-07-31T12:41:10;4.55;;;1.73;;
58460;SDS011;45558;37.752;-97.822;2023-07-31T12:43:37;7.00;;;1.42;;
58460;SDS011;45558;37.752;-97.822;2023-07-31T12:46:04;7.63;;;1.58;;
58460;SDS011;45558;37.752;-97.822;2023-07-31T12:48:31;12.27;;;2.30;;
58460;SDS011;45558;37.752;-97.822;2023-07-31T12:51:00;9.73;;;2.15;;
58460;SDS011;45558;37.752;-97.822;2023-07-31T12:53:26;8.13;;;1.90;;
58460;SDS011;45558;37.752;-97.822;2023-07-31T12:55:51;6.15;;;1.45;;
58460;SDS011;45558;37.752;-97.822;2023-07-31T12:58:17;12.65;;;2.45;;
58460;SDS011;45558;37.752;-97.822;2023-07-31T13:00:42;14.90;;;2.00;;
58460;SDS011;45558;37.752;-97.822;2023-07-31T13:03:08;6.50;;;1.77;;
58460;SDS011;45558;37.752;-97.822;2023-07-31T13:05:34;9.85;;;2.13;;
58460;SDS011;45558;37.752;-97.822;2023-07-31T13:08:00;8.63;;;1.98;;
58460;SDS011;45558;37.752;-97.822;2023-07-31T13:10:26;12.20;;;2.05;;
58460;SDS011;45558;37.752;-97.822;2023-07-31T13:12:54;5.93;;;1.40;;
58460;SDS011;45558;37.752;-97.822;2023-07-31T13:15:20;6.93;;;2.05;;
58460;SDS011;45558;37.752;-97.822;2023-07-31T13:17:46;8.80;;;1.90;;
58460;SDS011;45558;37.752;-97.822;2023-07-31T13:20:12;8.00;;;1.73;;
58460;SDS011;45558;37.752;-97.822;2023-07-31T13:22:38;8.43;;;2.03;;
58460;SDS011;45558;37.752;-97.822;2023-07-31T13:25:05;10.35;;;2.20;;
58460;SDS011;45558;37.752;-97.822;2023-07-31T13:27:32;6.03;;;1.67;;
58460;SDS011;45558;37.752;-97.822;2023-07-31T13:29:57;5.00;;;1.75;;
58460;SDS011;45558;37.752;-97.822;2023-07-31T13:32:23;8.80;;;1.88;;
58460;SDS011;45558;37.752;-97.822;2023-07-31T13:34:49;16.25;;;4.00;;
58460;SDS011;45558;37.752;-97.822;2023-07-31T13:37:15;7.40;;;1.80;;
58460;SDS011;45558;37.752;-97.822;2023-07-31T13:39:41;9.05;;;1.88;;
58460;SDS011;45558;37.752;-97.822;2023-07-31T13:42:08;8.02;;;1.80;;
58460;SDS011;45558;37.752;-97.822;2023-07-31T13:44:39;7.28;;;2.00;;
58460;SDS011;45558;37.752;-97.822;2023-07-31T13:47:06;9.40;;;2.20;;
58460;SDS011;45558;37.752;-97.822;2023-07-31T13:49:33;8.63;;;2.15;;
58460;SDS011;45558;37.752;-97.822;2023-07-31T13:52:00;10.45;;;1.90;;
58460;SDS011;45558;37.752;-97.822;2023-07-31T13:54:26;10.48;;;2.15;;
58460;SDS011;45558;37.752;-97.822;2023-07-31T13:56:52;6.30;;;1.60;;
58460;SDS011;45558;37.752;-97.822;2023-07-31T13:59:18;7.68;;;1.80;;
58460;SDS011;45558;37.752;-97.822;2023-07-31T14:01:44;7.22;;;1.85;;
58460;SDS011;45558;37.752;-97.822;2023-07-31T14:04:10;7.20;;;1.75;;
58460;SDS011;45558;37.752;-97.822;2023-07-31T14:06:36;10.32;;;1.83;;
58460;SDS011;45558;37.752;-97.822;2023-07-31T14:09:02;8.52;;;1.67;;
58460;SDS011;45558;37.752;-97.822;2023-07-31T14:11:28;8.43;;;1.92;;
58460;SDS011;45558;37.752;-97.822;2023-07-31T14:17:17;8.70;;;1.92;;
58460;SDS011;45558;37.752;-97.822;2023-07-31T14:19:43;9.98;;;1.98;;
58460;SDS011;45558;37.752;-97.822;2023-07-31T14:22:09;9.00;;;2.40;;
58460;SDS011;45558;37.752;-97.822;2023-07-31T14:24:35;6.63;;;1.70;;
58460;SDS011;45558;37.752;-97.822;2023-07-31T14:27:01;7.22;;;1.58;;
58460;SDS011;45558;37.752;-97.822;2023-07-31T14:29:27;11.25;;;1.90;;
58460;SDS011;45558;37.752;-97.822;2023-07-31T14:31:54;8.43;;;1.80;;
58460;SDS011;45558;37.752;-97.822;2023-07-31T14:34:20;8.70;;;1.92;;
58460;SDS011;45558;37.752;-97.822;2023-07-31T14:36:46;8.73;;;1.98;;
58460;SDS011;45558;37.752;-97.822;2023-07-31T14:39:13;4.30;;;1.85;;